Home > Products > Valid Products > TAF

000
FTUS44 KLZK 171700
TAFLIT
TAF
KLIT 171740Z 1718/1818 13007KT P6SM SCT100 BKN250
     FM180000 VRB03KT P6SM SCT060 BKN100
     FM181400 05006KT P6SM SCT100 BKN250=



000
FTUS44 KLZK 171700
TAFHOT
TAF
KHOT 171740Z 1718/1818 14005KT P6SM SCT100 BKN250
     FM180000 VRB03KT P6SM SCT060 BKN100
     FM181400 06005KT P6SM SCT100 BKN250=



000
FTUS44 KLZK 171700
TAFPBF
TAF
KPBF 171740Z 1718/1818 13006KT P6SM SCT100 BKN250
     FM180000 VRB03KT P6SM SCT060 BKN100
      TEMPO 1810/1814 BKN060
     FM181400 04007KT P6SM BKN060=



000
FTUS44 KLZK 171700
TAFHRO
TAF
KHRO 171740Z 1718/1818 13006KT P6SM SCT100 BKN250
     FM180000 VRB03KT P6SM SCT060 BKN100
     FM181400 08005KT P6SM SCT100 SCT250=



000
FTUS44 KLZK 171100
TAFHRO
TAF
KHRO 171120Z 1712/1812 13004KT P6SM FEW250
     FM171700 14008KT P6SM SCT100 BKN250
     FM180000 10003KT P6SM OVC100
     FM180600 35002KT P6SM SCT100 SCT250=



000
FTUS44 KLZK 171100
TAFHOT
TAF
KHOT 171120Z 1712/1812 VRB02KT P6SM SKC
     FM171800 15008KT P6SM FEW050 SCT100 BKN250
     FM180000 14004KT P6SM SCT050 BKN100
     FM180600 00000KT P6SM SCT100 SCT250=



000
FTUS44 KLZK 171100
TAFPBF
TAF
KPBF 171120Z 1712/1812 VRB02KT P6SM FEW250
     FM171800 14008KT P6SM SCT050 SCT100 BKN250
     FM180000 11004KT P6SM BKN050 BKN100
     FM180600 05003KT P6SM BKN050 BKN100=



000
FTUS44 KLZK 171100
TAFLIT
TAF
KLIT 171120Z 1712/1812 13004KT P6SM SKC
     FM171800 13007KT P6SM FEW050 SCT100 BKN250
     FM180000 13004KT P6SM SCT050 BKN100
     FM180600 00000KT P6SM SCT100 SCT250=



000
FTUS44 KLZK 170500 RRA
TAFHRO
TAF
KHRO 170550Z 1706/1806 13004KT P6SM FEW250
     FM171700 14008KT P6SM SCT100 BKN250
     FM180000 10003KT P6SM OVC100=



000
FTUS44 KLZK 170500 RRA
TAFLIT
TAF
KLIT 170550Z 1706/1806 13004KT P6SM FEW250
     FM171800 13007KT P6SM FEW050 SCT100 BKN250
     FM180000 13004KT P6SM SCT050 BKN100=



000
FTUS44 KLZK 170500 RRA
TAFHOT
TAF
KHOT 170550Z 1706/1806 09004KT P6SM FEW250
     FM171800 15008KT P6SM FEW050 SCT100 BKN250
     FM180000 14004KT P6SM SCT050 BKN100=



000
FTUS44 KLZK 170500 RRA
TAFPBF
TAF
KPBF 170550Z 1706/1806 VRB02KT P6SM FEW250
     FM171800 14008KT P6SM FEW050 SCT100 BKN250
     FM180000 11004KT P6SM SCT050 BKN100=



000
FTUS44 KLZK 162300
TAFPBF
TAF
KPBF 162330Z 1700/1724 12009KT P6SM SCT250
     FM170200 13005KT P6SM SCT250
     FM171500 14008KT P6SM FEW040 SCT100 BKN250=



000
FTUS44 KLZK 162300
TAFHOT
TAF
KHOT 162330Z 1700/1724 15005KT P6SM SCT250
     FM171500 15008KT P6SM FEW040 SCT100 BKN250=



000
FTUS44 KLZK 162300
TAFHRO
TAF
KHRO 162330Z 1700/1724 14012KT P6SM SCT250
     FM170200 14007KT P6SM SCT250
     FM171500 14007G18KT P6SM SCT100 BKN250=



000
FTUS44 KLZK 162300
TAFLIT
TAF
KLIT 162330Z 1700/1724 13010KT P6SM BKN250
     FM170200 13005KT P6SM SCT250
     FM171500 14009KT P6SM FEW040 SCT100 BKN250=



000
FTUS44 KLZK 162100 AAA
TAFPBF
TAF AMD
KPBF 162106Z 1621/1718 11010G18KT P6SM BKN250
     FM170000 12003KT P6SM SCT250
     FM171500 14007KT P6SM SCT100 BKN250=



000
FTUS44 KLZK 162100 AAA
TAFLIT
TAF AMD
KLIT 162105Z 1621/1718 14010G18KT P6SM SCT080 BKN250
     FM170000 15003KT P6SM SCT250
     FM171500 14008KT P6SM SCT100 BKN250=



000
FTUS44 KLZK 161700
TAFLIT
TAF
KLIT 161738Z 1618/1718 16010G18KT P6SM BKN250
     FM170000 15003KT P6SM SKC
     FM171500 15006KT P6SM BKN250=



000
FTUS44 KLZK 161700
TAFHRO
TAF
KHRO 161738Z 1618/1718 16014G24KT P6SM BKN250
     FM170000 14005KT P6SM SCT250
     FM171500 14007KT P6SM SCT100 BKN250=



000
FTUS44 KLZK 161700
TAFPBF
TAF
KPBF 161738Z 1618/1718 14010G18KT P6SM BKN250
     FM170000 14003KT P6SM SCT250
     FM171500 14006KT P6SM BKN250=



000
FTUS44 KLZK 161700
TAFHOT
TAF
KHOT 161738Z 1618/1718 15009G16KT P6SM BKN250
     FM170000 14003KT P6SM SCT250
     FM171500 15006KT P6SM SCT100 BKN250=



000
FTUS44 KLZK 161100
TAFLIT
TAF
KLIT 161120Z 1612/1712 14003KT P6SM FEW250
     FM161500 15007KT P6SM FEW250
     FM161800 16008G16KT P6SM FEW250
     FM170100 15004KT P6SM SKC=



000
FTUS44 KLZK 161100
TAFHRO
TAF
KHRO 161120Z 1612/1712 13010KT P6SM FEW250
     FM161500 16012G22KT P6SM FEW250
     FM170000 15007KT P6SM SKC=



000
FTUS44 KLZK 161100
TAFPBF
TAF
KPBF 161120Z 1612/1712 12005KT P6SM FEW250
     FM161500 15009KT P6SM FEW250
     FM170100 14004KT P6SM SKC=



000
FTUS44 KLZK 161100
TAFHOT
TAF
KHOT 161120Z 1612/1712 10004KT P6SM FEW250
     FM161500 16006KT P6SM FEW250
     FM161800 17008G16KT P6SM FEW250
     FM170100 12003KT P6SM SKC=



000
FTUS44 KLZK 160500
TAFLIT
TAF
KLIT 160520Z 1606/1706 15006KT P6SM SCT250
     FM161500 16008G16KT P6SM SCT250
     FM170000 15005KT P6SM SKC=



000
FTUS44 KLZK 160500
TAFHRO
TAF
KHRO 160520Z 1606/1706 14005KT P6SM SCT250
     FM161500 16012G22KT P6SM SCT250
     FM170000 15007KT P6SM SKC=



000
FTUS44 KLZK 160500
TAFPBF
TAF
KPBF 160520Z 1606/1706 12005KT P6SM SCT250
     FM161500 15009KT P6SM SCT250
     FM170000 14006KT P6SM SKC=



000
FTUS44 KLZK 160500
TAFHOT
TAF
KHOT 160520Z 1606/1706 VRB03KT P6SM SCT250
     FM161500 16008G16KT P6SM SCT250
     FM170000 15003KT P6SM SKC=



000
FTUS44 KLZK 160200 AAA
TAFLIT
TAF AMD
KLIT 160235Z 1603/1624 15005KT P6SM SCT250
     FM161500 16008G16KT P6SM SCT250=



000
FTUS44 KLZK 152300
TAFHRO
TAF
KHRO 152322Z 1600/1624 VRB05KT P6SM SCT250
     FM161500 16012G22KT P6SM SCT250=



000
FTUS44 KLZK 152300
TAFLIT
TAF
KLIT 152322Z 1600/1624 07003KT P6SM SCT250
     FM161000 15003KT P6SM SCT250
     FM161500 16008G16KT P6SM SCT250=



000
FTUS44 KLZK 152300
TAFHOT
TAF
KHOT 152322Z 1600/1624 VRB05KT P6SM SCT250
     FM161500 16008G16KT P6SM SCT250=



000
FTUS44 KLZK 152300
TAFPBF
TAF
KPBF 152322Z 1600/1624 08005KT P6SM SCT250
     FM161000 12003KT P6SM SCT250
     FM161500 15008KT P6SM SCT250=



000
FTUS44 KLZK 151700
TAFHOT
TAF
KHOT 151735Z 1518/1618 29005KT P6SM SKC
     FM160000 14003KT P6SM SKC
     FM161500 16009G16KT P6SM SKC=



000
FTUS44 KLZK 151700
TAFPBF
TAF
KPBF 151735Z 1518/1618 35009KT P6SM SKC
     FM160000 12003KT P6SM SKC
     FM161500 14008KT P6SM SKC=



000
FTUS44 KLZK 151700
TAFLIT
TAF
KLIT 151735Z 1518/1618 34008KT P6SM FEW050
     FM160000 15003KT P6SM SKC
     FM161500 16009G16KT P6SM SKC=



000
FTUS44 KLZK 151700
TAFHRO
TAF
KHRO 151735Z 1518/1618 31007KT P6SM FEW050
     FM160000 15005KT P6SM SKC
     FM161400 16012G20KT P6SM SKC=



000
FTUS44 KLZK 151100
TAFHRO
TAF
KHRO 151130Z 1512/1612 30004KT P6SM SKC
     FM151500 32008KT P6SM SKC
     FM160100 16004KT P6SM SKC=



000
FTUS44 KLZK 151100
TAFLIT
TAF
KLIT 151130Z 1512/1612 33006KT P6SM SKC
     FM151500 34011KT P6SM SKC
     FM160100 12004KT P6SM SKC=



000
FTUS44 KLZK 151100
TAFHOT
TAF
KHOT 151130Z 1512/1612 32004KT P6SM SKC
     FM151600 31007KT P6SM SKC
     FM160100 15003KT P6SM SKC=



000
FTUS44 KLZK 151100
TAFPBF
TAF
KPBF 151130Z 1512/1612 34006KT P6SM SKC
     FM151500 35010KT P6SM SKC
     FM152300 VRB06KT P6SM SKC=



000
FTUS44 KLZK 150500
TAFLIT
TAF
KLIT 150538Z 1506/1606 34010KT P6SM BKN040
     FM150700 34005KT P6SM SKC
     FM151500 34011KT P6SM SKC
     FM160100 12004KT P6SM SKC=



000
FTUS44 KLZK 150500
TAFHOT
TAF
KHOT 150538Z 1506/1606 34004KT P6SM SKC
     FM151600 31007KT P6SM SKC
     FM160100 15003KT P6SM SKC=



000
FTUS44 KLZK 150500
TAFPBF
TAF
KPBF 150538Z 1506/1606 33012G22KT P6SM OVC040
     FM150800 34008KT P6SM SKC
     FM151500 35010G18KT P6SM SKC
     FM152300 VRB06KT P6SM SKC=



000
FTUS44 KLZK 150500
TAFHRO
TAF
KHRO 150538Z 1506/1606 30004KT P6SM SKC
     FM151500 32008KT P6SM SKC
     FM160100 16004KT P6SM SKC=



000
FTUS44 KLZK 150100 AAA
TAFPBF
TAF AMD
KPBF 150102Z 1501/1524 33012G20KT P6SM BKN030
     FM150800 34006KT P6SM SKC
     FM151500 35012G19KT P6SM SKC=



000
FTUS44 KLZK 150100 AAA
TAFLIT
TAF AMD
KLIT 150101Z 1501/1524 33012G19KT P6SM BKN030
     FM150600 34010KT P6SM SKC
     FM151000 34007KT P6SM SKC=



000
FTUS44 KLZK 150100 AAA
TAFHOT
TAF AMD
KHOT 150100Z 1501/1524 33008G17KT P6SM BKN030
     FM150500 35004KT P6SM SKC
     FM151500 33007KT P6SM SKC=



000
FTUS44 KLZK 150000 AAA
TAFHRO
TAF AMD
KHRO 150059Z 1501/1524 33010G17KT P6SM BKN035
     FM150200 30010KT P6SM SKC
     FM150600 30004KT P6SM SKC
     FM151500 32008KT P6SM FEW250=



000
FTUS44 KLZK 142300
TAFHOT
TAF
KHOT 142320Z 1500/1524 33010G17KT P6SM BKN025 OVC050
     FM150300 32006KT P6SM SCT050 BKN100
     FM150500 35004KT P6SM SKC
     FM151500 33007KT P6SM SKC=



000
FTUS44 KLZK 142300
TAFPBF
TAF
KPBF 142320Z 1500/1524 33010G20KT P6SM BKN025 OVC050
     FM150600 33008KT P6SM BKN050 BKN100
     FM150800 34006KT P6SM SKC
     FM151500 35012G19KT P6SM SKC=



000
FTUS44 KLZK 142300
TAFHRO
TAF
KHRO 142320Z 1500/1524 33010G17KT P6SM BKN025 OVC050
     FM150200 30008KT P6SM SKC
     FM150600 30004KT P6SM SKC
     FM151500 32008KT P6SM FEW250=



000
FTUS44 KLZK 142300
TAFLIT
TAF
KLIT 142320Z 1500/1524 34012G22KT P6SM BKN025 OVC050
     FM150300 33010KT P6SM BKN050 BKN100
     FM150600 34010KT P6SM SKC
     FM151000 34007KT P6SM SKC=



    US Dept of Commerce
    National Oceanic and Atmospheric Administration
    National Weather Service
    1325 East West Highway
    Silver Spring, MD 20910
    Page Author: NWS Internet Services Team
Disclaimer
Information Quality
Credits
Glossary
Privacy Policy
Freedom of Information Act (FOIA)
About Us
Career Opportunities